PWSweather.com
Personal Weather Stations
Station Observations
KILMORRI1
Goose Lake, Morris, IL 60450

Goose LakeMorris, IL 60450

Lat: 41.34, Lon: -88.3

Elevation: 523

Station Type:

www.gooselakeweather.com

High Low Average
Temperature 32.9°F0.5°C 29.4°F-1.4°C 30.9°F-0.6°C
Dew Point 28.1°F-2.2°C 23.8°F-4.6°C 25.7°F-3.5°C
Winds 12.7 mph 20.4 kmh Calm Calm 5.0 mph S8.0 kmh S
Wind Gusts 19.6 mph31.5 kmh -- 7.0 mph11.3 kmh
Humidity 87% 73% 81%
Pressure 30.21 in1023.0 mb 30.06 in1017.9 mb -
Precipitation 0.00 in0.0 mm - -
Hour Temp Dew Point Humidity Winds Wind Gusts Pressure Precip Precip Rate Daily Precip Total
12:00 AM 31.4°F-0.3°C 27.7°F-2.4°C 86% 3.5 mph W5.6 kmh W 5.8 mph9.3 kmh 30.11 in1019.6 mb - 0.00 in0.0 mm 0.00 in0.0 mm
12:10 AM 31.4°F-0.3°C 27.7°F-2.4°C 86% 2.3 mph W3.7 kmh W 3.5 mph5.6 kmh 30.11 in1019.6 mb - 0.00 in0.0 mm 0.00 in0.0 mm
12:20 AM 31.4°F-0.3°C 28.0°F-2.2°C 87% 2.3 mph WSW3.7 kmh WSW 3.5 mph5.6 kmh 30.11 in1019.6 mb - 0.00 in0.0 mm 0.00 in0.0 mm
12:30 AM 31.4°F-0.3°C 28.0°F-2.2°C 87% 2.3 mph WSW3.7 kmh WSW 3.5 mph5.6 kmh 30.11 in1019.6 mb - 0.00 in0.0 mm 0.00 in0.0 mm
12:40 AM 31.4°F-0.3°C 28.0°F-2.2°C 87% 1.2 mph WSW1.9 kmh WSW 3.5 mph5.6 kmh 30.11 in1019.6 mb - 0.00 in0.0 mm 0.00 in0.0 mm
12:50 AM 31.4°F-0.3°C 28.0°F-2.2°C 87% 2.3 mph W3.7 kmh W 4.6 mph7.4 kmh 30.11 in1019.6 mb - 0.00 in0.0 mm 0.00 in0.0 mm
01:00 AM 31.4°F-0.3°C 28.0°F-2.2°C 87% 3.5 mph W5.6 kmh W 4.6 mph7.4 kmh 30.11 in1019.6 mb - 0.00 in0.0 mm 0.00 in0.0 mm
01:10 AM 31.4°F-0.3°C 28.0°F-2.2°C 87% 3.5 mph W5.6 kmh W 3.5 mph5.6 kmh 30.11 in1019.6 mb - 0.00 in0.0 mm 0.00 in0.0 mm
01:20 AM 31.5°F-0.3°C 28.1°F-2.2°C 87% 4.6 mph W7.4 kmh W 4.6 mph7.4 kmh 30.12 in1020.0 mb - 0.00 in0.0 mm 0.00 in0.0 mm
01:30 AM 31.5°F-0.3°C 28.1°F-2.2°C 87% 3.5 mph W5.6 kmh W 5.8 mph9.3 kmh 30.12 in1020.0 mb - 0.00 in0.0 mm 0.00 in0.0 mm
01:40 AM 31.5°F-0.3°C 28.1°F-2.2°C 87% 3.5 mph W5.6 kmh W 3.5 mph5.6 kmh 30.12 in1020.0 mb - 0.00 in0.0 mm 0.00 in0.0 mm
01:50 AM 31.5°F-0.3°C 28.1°F-2.2°C 87% 3.5 mph WNW5.6 kmh WNW 3.5 mph5.6 kmh 30.12 in1020.0 mb - 0.00 in0.0 mm 0.00 in0.0 mm
02:00 AM 31.5°F-0.3°C 28.0°F-2.2°C 87% 3.5 mph WNW5.6 kmh WNW 3.5 mph5.6 kmh 30.12 in1020.0 mb - 0.00 in0.0 mm 0.00 in0.0 mm
02:10 AM 31.4°F-0.3°C 27.7°F-2.4°C 86% 4.6 mph W7.4 kmh W 6.9 mph11.1 kmh 30.13 in1020.3 mb - 0.00 in0.0 mm 0.00 in0.0 mm
02:20 AM 31.2°F-0.4°C 27.2°F-2.7°C 85% 4.6 mph WNW7.4 kmh WNW 9.2 mph14.8 kmh 30.13 in1020.3 mb - 0.00 in0.0 mm 0.00 in0.0 mm
02:30 AM 31.0°F-0.6°C 26.4°F-3.1°C 83% 5.8 mph NW9.3 kmh NW 6.9 mph11.1 kmh 30.13 in1020.3 mb - 0.00 in0.0 mm 0.00 in0.0 mm
02:40 AM 30.9°F-0.6°C 26.3°F-3.2°C 83% 4.6 mph NW7.4 kmh NW 5.8 mph9.3 kmh 30.13 in1020.3 mb - 0.00 in0.0 mm 0.00 in0.0 mm
02:50 AM 30.9°F-0.6°C 26.3°F-3.2°C 83% 5.8 mph WNW9.3 kmh WNW 8.1 mph13.0 kmh 30.14 in1020.7 mb - 0.00 in0.0 mm 0.00 in0.0 mm
03:00 AM 30.9°F-0.6°C 26.3°F-3.2°C 83% 3.5 mph W5.6 kmh W 4.6 mph7.4 kmh 30.14 in1020.7 mb - 0.00 in0.0 mm 0.00 in0.0 mm
03:10 AM 30.7°F-0.7°C 26.1°F-3.3°C 83% 4.6 mph W7.4 kmh W 5.8 mph9.3 kmh 30.14 in1020.7 mb - 0.00 in0.0 mm 0.00 in0.0 mm
03:20 AM 30.6°F-0.8°C 26.1°F-3.3°C 83% 4.6 mph WNW7.4 kmh WNW 6.9 mph11.1 kmh 30.14 in1020.7 mb - 0.00 in0.0 mm 0.00 in0.0 mm
03:30 AM 30.5°F-0.8°C 26.0°F-3.3°C 83% 5.8 mph WNW9.3 kmh WNW 8.1 mph13.0 kmh 30.14 in1020.7 mb - 0.00 in0.0 mm 0.00 in0.0 mm
03:40 AM 30.4°F-0.9°C 25.9°F-3.4°C 83% 3.5 mph WNW5.6 kmh WNW 4.6 mph7.4 kmh 30.14 in1020.7 mb - 0.00 in0.0 mm 0.00 in0.0 mm
03:50 AM 30.3°F-0.9°C 25.8°F-3.4°C 83% 3.5 mph W5.6 kmh W 4.6 mph7.4 kmh 30.13 in1020.3 mb - 0.00 in0.0 mm 0.00 in0.0 mm
04:00 AM 30.2°F-1.0°C 25.7°F-3.5°C 83% 2.3 mph WNW3.7 kmh WNW 3.5 mph5.6 kmh 30.13 in1020.3 mb - 0.00 in0.0 mm 0.00 in0.0 mm
04:10 AM 30.1°F-1.1°C 25.6°F-3.6°C 83% 3.5 mph WNW5.6 kmh WNW 3.5 mph5.6 kmh 30.13 in1020.3 mb - 0.00 in0.0 mm 0.00 in0.0 mm
04:20 AM 30.0°F-1.1°C 25.5°F-3.6°C 83% 3.5 mph WNW5.6 kmh WNW 5.8 mph9.3 kmh 30.13 in1020.3 mb - 0.00 in0.0 mm 0.00 in0.0 mm
04:30 AM 29.9°F-1.2°C 25.4°F-3.7°C 83% 2.3 mph WNW3.7 kmh WNW 3.5 mph5.6 kmh 30.13 in1020.3 mb - 0.00 in0.0 mm 0.00 in0.0 mm
04:40 AM 29.7°F-1.3°C 25.2°F-3.8°C 83% 2.3 mph NW3.7 kmh NW 2.3 mph3.7 kmh 30.12 in1020.0 mb - 0.00 in0.0 mm 0.00 in0.0 mm
04:50 AM 29.5°F-1.4°C 25.0°F-3.9°C 83% 1.2 mph NW1.9 kmh NW 2.3 mph3.7 kmh 30.12 in1020.0 mb - 0.00 in0.0 mm 0.00 in0.0 mm
05:00 AM 29.4°F-1.4°C 25.2°F-3.8°C 84% 1.2 mph NW1.9 kmh NW 2.3 mph3.7 kmh 30.12 in1020.0 mb - 0.00 in0.0 mm 0.00 in0.0 mm
05:10 AM 29.5°F-1.4°C 25.2°F-3.8°C 84% 2.3 mph WNW3.7 kmh WNW 2.3 mph3.7 kmh 30.12 in1020.0 mb - 0.00 in0.0 mm 0.00 in0.0 mm
05:20 AM 29.5°F-1.4°C 25.3°F-3.7°C 84% 1.2 mph WNW1.9 kmh WNW 2.3 mph3.7 kmh 30.12 in1020.0 mb - 0.00 in0.0 mm 0.00 in0.0 mm
05:30 AM 29.6°F-1.3°C 25.3°F-3.7°C 84% 1.2 mph WNW1.9 kmh WNW 2.3 mph3.7 kmh 30.13 in1020.3 mb - 0.00 in0.0 mm 0.00 in0.0 mm
05:40 AM 29.6°F-1.3°C 25.3°F-3.7°C 84% 1.2 mph W1.9 kmh W 2.3 mph3.7 kmh 30.13 in1020.3 mb - 0.00 in0.0 mm 0.00 in0.0 mm
05:50 AM 29.6°F-1.3°C 25.3°F-3.7°C 84% 1.2 mph W1.9 kmh W 3.5 mph5.6 kmh 30.14 in1020.7 mb - 0.00 in0.0 mm 0.00 in0.0 mm
06:00 AM 29.7°F-1.3°C 25.5°F-3.6°C 84% 1.2 mph W1.9 kmh W 2.3 mph3.7 kmh 30.14 in1020.7 mb - 0.00 in0.0 mm 0.00 in0.0 mm
06:10 AM 29.7°F-1.3°C 25.5°F-3.6°C 84% 1.2 mph W1.9 kmh W 2.3 mph3.7 kmh 30.14 in1020.7 mb - 0.00 in0.0 mm 0.00 in0.0 mm
06:20 AM 29.6°F-1.3°C 25.4°F-3.7°C 84% 2.3 mph W3.7 kmh W 3.5 mph5.6 kmh 30.15 in1021.0 mb - 0.00 in0.0 mm 0.00 in0.0 mm
06:30 AM 29.7°F-1.3°C 25.5°F-3.6°C 84% 1.2 mph WSW1.9 kmh WSW 3.5 mph5.6 kmh 30.15 in1021.0 mb - 0.00 in0.0 mm 0.00 in0.0 mm
06:40 AM 29.7°F-1.3°C 25.5°F-3.6°C 84% 3.5 mph W5.6 kmh W 3.5 mph5.6 kmh 30.16 in1021.3 mb - 0.00 in0.0 mm 0.00 in0.0 mm
06:50 AM 29.7°F-1.3°C 25.2°F-3.8°C 83% 1.2 mph W1.9 kmh W 2.3 mph3.7 kmh 30.15 in1021.0 mb - 0.00 in0.0 mm 0.00 in0.0 mm
07:00 AM 29.5°F-1.4°C 25.3°F-3.7°C 84% Calm Calm 1.2 mph1.9 kmh 30.15 in1021.0 mb - 0.00 in0.0 mm 0.00 in0.0 mm
07:10 AM 29.4°F-1.4°C 25.2°F-3.8°C 84% 1.2 mph W1.9 kmh W 1.2 mph1.9 kmh 30.15 in1021.0 mb - 0.00 in0.0 mm 0.00 in0.0 mm
07:20 AM 29.4°F-1.4°C 25.2°F-3.8°C 84% 1.2 mph W1.9 kmh W 3.5 mph5.6 kmh 30.15 in1021.0 mb - 0.00 in0.0 mm 0.00 in0.0 mm
07:30 AM 29.5°F-1.4°C 25.3°F-3.7°C 84% 1.2 mph NW1.9 kmh NW 2.3 mph3.7 kmh 30.15 in1021.0 mb - 0.00 in0.0 mm 0.00 in0.0 mm
07:40 AM 29.6°F-1.3°C 25.1°F-3.8°C 83% 1.2 mph W1.9 kmh W 3.5 mph5.6 kmh 30.16 in1021.3 mb - 0.00 in0.0 mm 0.00 in0.0 mm
07:50 AM 29.7°F-1.3°C 25.2°F-3.8°C 83% 2.3 mph NW3.7 kmh NW 3.5 mph5.6 kmh 30.16 in1021.3 mb - 0.00 in0.0 mm 0.00 in0.0 mm
08:00 AM 30.0°F-1.1°C 25.1°F-3.8°C 82% 2.3 mph NW3.7 kmh NW 2.3 mph3.7 kmh 30.17 in1021.7 mb - 0.00 in0.0 mm 0.00 in0.0 mm
08:10 AM 30.1°F-1.1°C 25.0°F-3.9°C 81% Calm Calm -- 30.16 in1021.3 mb - 0.00 in0.0 mm 0.00 in0.0 mm
08:20 AM 30.3°F-0.9°C 25.1°F-3.8°C 81% 1.2 mph NW1.9 kmh NW 2.3 mph3.7 kmh 30.16 in1021.3 mb - 0.00 in0.0 mm 0.00 in0.0 mm
08:30 AM 30.6°F-0.8°C 25.2°F-3.8°C 80% 1.2 mph NW1.9 kmh NW 2.3 mph3.7 kmh 30.16 in1021.3 mb - 0.00 in0.0 mm 0.00 in0.0 mm
08:40 AM 30.7°F-0.7°C 24.7°F-4.1°C 78% Calm Calm -- 30.16 in1021.3 mb - 0.00 in0.0 mm 0.00 in0.0 mm
08:50 AM 30.7°F-0.7°C 24.7°F-4.1°C 78% 2.3 mph W3.7 kmh W 3.5 mph5.6 kmh 30.17 in1021.7 mb - 0.00 in0.0 mm 0.00 in0.0 mm
09:00 AM 30.8°F-0.7°C 24.4°F-4.2°C 77% 2.3 mph NW3.7 kmh NW 3.5 mph5.6 kmh 30.18 in1022.0 mb - 0.00 in0.0 mm 0.00 in0.0 mm
09:10 AM 31.0°F-0.6°C 24.6°F-4.1°C 77% 1.2 mph NW1.9 kmh NW 3.5 mph5.6 kmh 30.18 in1022.0 mb - 0.00 in0.0 mm 0.00 in0.0 mm
09:20 AM 31.0°F-0.6°C 24.3°F-4.3°C 76% 3.5 mph WNW5.6 kmh WNW 3.5 mph5.6 kmh 30.19 in1022.4 mb - 0.00 in0.0 mm 0.00 in0.0 mm
09:30 AM 31.1°F-0.5°C 24.4°F-4.2°C 76% 2.3 mph NW3.7 kmh NW 4.6 mph7.4 kmh 30.19 in1022.4 mb - 0.00 in0.0 mm 0.00 in0.0 mm
09:40 AM 31.2°F-0.4°C 24.5°F-4.2°C 76% 2.3 mph NW3.7 kmh NW 3.5 mph5.6 kmh 30.20 in1022.7 mb - 0.00 in0.0 mm 0.00 in0.0 mm
09:50 AM 31.2°F-0.4°C 24.2°F-4.3°C 75% 2.3 mph NW3.7 kmh NW 3.5 mph5.6 kmh 30.20 in1022.7 mb - 0.00 in0.0 mm 0.00 in0.0 mm
10:00 AM 31.3°F-0.4°C 24.6°F-4.1°C 76% 1.2 mph NNW1.9 kmh NNW 3.5 mph5.6 kmh 30.20 in1022.7 mb - 0.00 in0.0 mm 0.00 in0.0 mm
10:10 AM 31.2°F-0.4°C 24.2°F-4.3°C 75% 1.2 mph NW1.9 kmh NW 1.2 mph1.9 kmh 30.20 in1022.7 mb - 0.00 in0.0 mm 0.00 in0.0 mm
10:20 AM 31.3°F-0.4°C 24.3°F-4.3°C 75% 1.2 mph NW1.9 kmh NW 2.3 mph3.7 kmh 30.20 in1022.7 mb - 0.00 in0.0 mm 0.00 in0.0 mm
10:30 AM 31.2°F-0.4°C 23.9°F-4.5°C 74% Calm Calm -- 30.19 in1022.4 mb - 0.00 in0.0 mm 0.00 in0.0 mm
10:40 AM 31.3°F-0.4°C 24.0°F-4.4°C 74% Calm Calm 1.2 mph1.9 kmh 30.21 in1023.0 mb - 0.00 in0.0 mm 0.00 in0.0 mm
10:50 AM 31.5°F-0.3°C 24.1°F-4.4°C 74% 2.3 mph SW3.7 kmh SW 3.5 mph5.6 kmh 30.21 in1023.0 mb - 0.00 in0.0 mm 0.00 in0.0 mm
11:00 AM 31.5°F-0.3°C 24.2°F-4.3°C 74% 1.2 mph SW1.9 kmh SW 2.3 mph3.7 kmh 30.21 in1023.0 mb - 0.00 in0.0 mm 0.00 in0.0 mm
11:10 AM 31.6°F-0.2°C 23.9°F-4.5°C 73% Calm Calm 1.2 mph1.9 kmh 30.20 in1022.7 mb - 0.00 in0.0 mm 0.00 in0.0 mm
11:20 AM 31.6°F-0.2°C 24.3°F-4.3°C 74% 1.2 mph SE1.9 kmh SE 2.3 mph3.7 kmh 30.20 in1022.7 mb - 0.00 in0.0 mm 0.00 in0.0 mm
11:30 AM 31.5°F-0.3°C 23.8°F-4.6°C 73% 1.2 mph SE1.9 kmh SE 2.3 mph3.7 kmh 30.19 in1022.4 mb - 0.00 in0.0 mm 0.00 in0.0 mm
11:40 AM 31.7°F-0.2°C 24.4°F-4.2°C 74% 1.2 mph SE1.9 kmh SE 1.2 mph1.9 kmh 30.19 in1022.4 mb - 0.00 in0.0 mm 0.00 in0.0 mm
11:50 AM 31.8°F-0.1°C 24.5°F-4.2°C 74% 1.2 mph NE1.9 kmh NE 3.5 mph5.6 kmh 30.18 in1022.0 mb - 0.00 in0.0 mm 0.00 in0.0 mm
12:00 PM 31.7°F-0.2°C 24.3°F-4.3°C 74% 1.2 mph NE1.9 kmh NE 3.5 mph5.6 kmh 30.18 in1022.0 mb - 0.00 in0.0 mm 0.00 in0.0 mm
12:10 PM 31.7°F-0.2°C 24.7°F-4.1°C 75% 1.2 mph NNE1.9 kmh NNE 2.3 mph3.7 kmh 30.18 in1022.0 mb - 0.00 in0.0 mm 0.00 in0.0 mm
12:20 PM 31.9°F-0.1°C 24.9°F-3.9°C 75% 1.2 mph NNW1.9 kmh NNW 2.3 mph3.7 kmh 30.18 in1022.0 mb - 0.00 in0.0 mm 0.00 in0.0 mm
12:30 PM 31.8°F-0.1°C 24.5°F-4.2°C 74% 1.2 mph NNW1.9 kmh NNW 2.3 mph3.7 kmh 30.18 in1022.0 mb - 0.00 in0.0 mm 0.00 in0.0 mm
12:40 PM 32.2°F0.1°C 24.8°F-4.0°C 74% 1.2 mph NNW1.9 kmh NNW 1.2 mph1.9 kmh 30.18 in1022.0 mb - 0.00 in0.0 mm 0.00 in0.0 mm
12:50 PM 32.1°F0.1°C 25.1°F-3.8°C 75% 1.2 mph NNW1.9 kmh NNW 2.3 mph3.7 kmh 30.17 in1021.7 mb - 0.00 in0.0 mm 0.00 in0.0 mm
01:00 PM 32.2°F0.1°C 25.2°F-3.8°C 75% 1.2 mph N1.9 kmh N 3.5 mph5.6 kmh 30.16 in1021.3 mb - 0.00 in0.0 mm 0.00 in0.0 mm
01:10 PM 32.1°F0.1°C 25.4°F-3.7°C 76% 1.2 mph NNE1.9 kmh NNE 4.6 mph7.4 kmh 30.16 in1021.3 mb - 0.00 in0.0 mm 0.00 in0.0 mm
01:20 PM 31.8°F-0.1°C 25.1°F-3.8°C 76% 1.2 mph NE1.9 kmh NE 2.3 mph3.7 kmh 30.15 in1021.0 mb - 0.00 in0.0 mm 0.00 in0.0 mm
01:30 PM 32.0°F0.0°C 25.3°F-3.7°C 76% 2.3 mph N3.7 kmh N 3.5 mph5.6 kmh 30.14 in1020.7 mb - 0.00 in0.0 mm 0.00 in0.0 mm
01:40 PM 32.5°F0.3°C 25.7°F-3.5°C 76% 3.5 mph ENE5.6 kmh ENE 4.6 mph7.4 kmh 30.13 in1020.3 mb - 0.00 in0.0 mm 0.00 in0.0 mm
01:50 PM 32.5°F0.3°C 25.8°F-3.4°C 76% 3.5 mph E5.6 kmh E 4.6 mph7.4 kmh 30.13 in1020.3 mb - 0.00 in0.0 mm 0.00 in0.0 mm
02:00 PM 32.8°F0.4°C 25.7°F-3.5°C 75% 6.9 mph E11.1 kmh E 9.2 mph14.8 kmh 30.13 in1020.3 mb - 0.00 in0.0 mm 0.00 in0.0 mm
02:10 PM 32.8°F0.4°C 25.7°F-3.5°C 75% 5.8 mph E9.3 kmh E 6.9 mph11.1 kmh 30.13 in1020.3 mb - 0.00 in0.0 mm 0.00 in0.0 mm
02:20 PM 32.9°F0.5°C 26.1°F-3.3°C 76% 9.2 mph E14.8 kmh E 11.5 mph18.5 kmh 30.13 in1020.3 mb - 0.00 in0.0 mm 0.00 in0.0 mm
02:30 PM 32.8°F0.4°C 26.4°F-3.1°C 77% 6.9 mph E11.1 kmh E 8.1 mph13.0 kmh 30.13 in1020.3 mb - 0.00 in0.0 mm 0.00 in0.0 mm
02:40 PM 32.9°F0.5°C 26.5°F-3.1°C 77% 6.9 mph ENE11.1 kmh ENE 9.2 mph14.8 kmh 30.14 in1020.7 mb - 0.00 in0.0 mm 0.00 in0.0 mm
02:50 PM 32.8°F0.4°C 26.4°F-3.1°C 77% 4.6 mph ENE7.4 kmh ENE 8.1 mph13.0 kmh 30.14 in1020.7 mb - 0.00 in0.0 mm 0.00 in0.0 mm
03:00 PM 32.7°F0.4°C 26.2°F-3.2°C 77% 4.6 mph E7.4 kmh E 8.1 mph13.0 kmh 30.13 in1020.3 mb - 0.00 in0.0 mm 0.00 in0.0 mm
03:10 PM 32.6°F0.3°C 26.2°F-3.2°C 77% 6.9 mph E11.1 kmh E 11.5 mph18.5 kmh 30.13 in1020.3 mb - 0.00 in0.0 mm 0.00 in0.0 mm
03:20 PM 32.4°F0.2°C 26.3°F-3.2°C 78% 5.8 mph ENE9.3 kmh ENE 8.1 mph13.0 kmh 30.14 in1020.7 mb - 0.00 in0.0 mm 0.00 in0.0 mm
03:30 PM 32.1°F0.1°C 26.0°F-3.3°C 78% 5.8 mph ENE9.3 kmh ENE 8.1 mph13.0 kmh 30.14 in1020.7 mb - 0.00 in0.0 mm 0.00 in0.0 mm
03:40 PM 31.8°F-0.1°C 26.0°F-3.3°C 79% 8.1 mph E13.0 kmh E 13.8 mph22.2 kmh 30.14 in1020.7 mb - 0.00 in0.0 mm 0.00 in0.0 mm
03:50 PM 31.6°F-0.2°C 25.8°F-3.4°C 79% 9.2 mph E14.8 kmh E 13.8 mph22.2 kmh 30.14 in1020.7 mb - 0.00 in0.0 mm 0.00 in0.0 mm
04:00 PM 31.6°F-0.2°C 26.1°F-3.3°C 80% 9.2 mph ENE14.8 kmh ENE 11.5 mph18.5 kmh 30.14 in1020.7 mb - 0.00 in0.0 mm 0.00 in0.0 mm
04:10 PM 31.4°F-0.3°C 25.9°F-3.4°C 80% 9.2 mph E14.8 kmh E 17.3 mph27.8 kmh 30.14 in1020.7 mb - 0.00 in0.0 mm 0.00 in0.0 mm
04:20 PM 31.2°F-0.4°C 25.7°F-3.5°C 80% 9.2 mph E14.8 kmh E 12.7 mph20.4 kmh 30.14 in1020.7 mb - 0.00 in0.0 mm 0.00 in0.0 mm
04:30 PM 30.8°F-0.7°C 25.3°F-3.7°C 80% 11.5 mph E18.5 kmh E 12.7 mph20.4 kmh 30.14 in1020.7 mb - 0.00 in0.0 mm 0.00 in0.0 mm
04:40 PM 30.6°F-0.8°C 25.2°F-3.8°C 80% 8.1 mph E13.0 kmh E 13.8 mph22.2 kmh 30.15 in1021.0 mb - 0.00 in0.0 mm 0.00 in0.0 mm
04:50 PM 30.6°F-0.8°C 25.4°F-3.7°C 81% 8.1 mph E13.0 kmh E 11.5 mph18.5 kmh 30.14 in1020.7 mb - 0.00 in0.0 mm 0.00 in0.0 mm
05:00 PM 30.6°F-0.8°C 25.4°F-3.7°C 81% 6.9 mph E11.1 kmh E 8.1 mph13.0 kmh 30.14 in1020.7 mb - 0.00 in0.0 mm 0.00 in0.0 mm
05:10 PM 30.6°F-0.8°C 25.5°F-3.6°C 81% 5.8 mph ENE9.3 kmh ENE 8.1 mph13.0 kmh 30.13 in1020.3 mb - 0.00 in0.0 mm 0.00 in0.0 mm
05:20 PM 30.7°F-0.7°C 25.9°F-3.4°C 82% 6.9 mph E11.1 kmh E 8.1 mph13.0 kmh 30.13 in1020.3 mb - 0.00 in0.0 mm 0.00 in0.0 mm
05:30 PM 30.8°F-0.7°C 26.0°F-3.3°C 82% 8.1 mph E13.0 kmh E 11.5 mph18.5 kmh 30.13 in1020.3 mb - 0.00 in0.0 mm 0.00 in0.0 mm
05:40 PM 30.7°F-0.7°C 25.8°F-3.4°C 82% 10.4 mph E16.7 kmh E 15.0 mph24.1 kmh 30.13 in1020.3 mb - 0.00 in0.0 mm 0.00 in0.0 mm
05:50 PM 30.6°F-0.8°C 25.5°F-3.6°C 81% 10.4 mph E16.7 kmh E 10.4 mph16.7 kmh 30.13 in1020.3 mb - 0.00 in0.0 mm 0.00 in0.0 mm
06:00 PM 30.7°F-0.7°C 25.8°F-3.4°C 82% 9.2 mph E14.8 kmh E 11.5 mph18.5 kmh 30.12 in1020.0 mb - 0.00 in0.0 mm 0.00 in0.0 mm
06:10 PM 30.8°F-0.7°C 26.0°F-3.3°C 82% 6.9 mph E11.1 kmh E 8.1 mph13.0 kmh 30.12 in1020.0 mb - 0.00 in0.0 mm 0.00 in0.0 mm
06:20 PM 30.9°F-0.6°C 26.3°F-3.2°C 83% 10.4 mph ENE16.7 kmh ENE 13.8 mph22.2 kmh 30.11 in1019.6 mb - 0.00 in0.0 mm 0.00 in0.0 mm
06:30 PM 31.0°F-0.6°C 26.4°F-3.1°C 83% 8.1 mph E13.0 kmh E 9.2 mph14.8 kmh 30.11 in1019.6 mb - 0.00 in0.0 mm 0.00 in0.0 mm
06:40 PM 31.1°F-0.5°C 26.5°F-3.1°C 83% 10.4 mph E16.7 kmh E 11.5 mph18.5 kmh 30.11 in1019.6 mb - 0.00 in0.0 mm 0.00 in0.0 mm
06:50 PM 31.2°F-0.4°C 26.9°F-2.8°C 84% 10.4 mph ENE16.7 kmh ENE 12.7 mph20.4 kmh 30.11 in1019.6 mb - 0.00 in0.0 mm 0.00 in0.0 mm
07:00 PM 31.2°F-0.4°C 26.6°F-3.0°C 83% 6.9 mph E11.1 kmh E 12.7 mph20.4 kmh 30.11 in1019.6 mb - 0.00 in0.0 mm 0.00 in0.0 mm
07:10 PM 31.2°F-0.4°C 26.6°F-3.0°C 83% 6.9 mph E11.1 kmh E 10.4 mph16.7 kmh 30.11 in1019.6 mb - 0.00 in0.0 mm 0.00 in0.0 mm
07:20 PM 31.0°F-0.6°C 26.4°F-3.1°C 83% 12.7 mph E20.4 kmh E 19.6 mph31.5 kmh 30.12 in1020.0 mb - 0.00 in0.0 mm 0.00 in0.0 mm
07:30 PM 30.8°F-0.7°C 26.3°F-3.2°C 83% 11.5 mph E18.5 kmh E 15.0 mph24.1 kmh 30.12 in1020.0 mb - 0.00 in0.0 mm 0.00 in0.0 mm
07:40 PM 30.8°F-0.7°C 25.9°F-3.4°C 82% 12.7 mph E20.4 kmh E 15.0 mph24.1 kmh 30.12 in1020.0 mb - 0.00 in0.0 mm 0.00 in0.0 mm
07:50 PM 30.8°F-0.7°C 26.0°F-3.3°C 82% 9.2 mph E14.8 kmh E 13.8 mph22.2 kmh 30.12 in1020.0 mb - 0.00 in0.0 mm 0.00 in0.0 mm
08:00 PM 30.8°F-0.7°C 25.9°F-3.4°C 82% 8.1 mph E13.0 kmh E 11.5 mph18.5 kmh 30.12 in1020.0 mb - 0.00 in0.0 mm 0.00 in0.0 mm
08:10 PM 30.7°F-0.7°C 25.8°F-3.4°C 82% 12.7 mph E20.4 kmh E 17.3 mph27.8 kmh 30.11 in1019.6 mb - 0.00 in0.0 mm 0.00 in0.0 mm
08:20 PM 30.7°F-0.7°C 25.6°F-3.6°C 81% 10.4 mph E16.7 kmh E 13.8 mph22.2 kmh 30.12 in1020.0 mb - 0.00 in0.0 mm 0.00 in0.0 mm
08:30 PM 30.7°F-0.7°C 25.6°F-3.6°C 81% 10.4 mph E16.7 kmh E 15.0 mph24.1 kmh 30.12 in1020.0 mb - 0.00 in0.0 mm 0.00 in0.0 mm
08:40 PM 30.7°F-0.7°C 25.6°F-3.6°C 81% 10.4 mph E16.7 kmh E 15.0 mph24.1 kmh 30.11 in1019.6 mb - 0.00 in0.0 mm 0.00 in0.0 mm
08:50 PM 30.6°F-0.8°C 25.5°F-3.6°C 81% 8.1 mph E13.0 kmh E 10.4 mph16.7 kmh 30.11 in1019.6 mb - 0.00 in0.0 mm 0.00 in0.0 mm
09:00 PM 30.6°F-0.8°C 25.8°F-3.4°C 82% 6.9 mph E11.1 kmh E 10.4 mph16.7 kmh 30.11 in1019.6 mb - 0.00 in0.0 mm 0.00 in0.0 mm
09:10 PM 30.6°F-0.8°C 25.7°F-3.5°C 82% 6.9 mph ENE11.1 kmh ENE 11.5 mph18.5 kmh 30.10 in1019.3 mb - 0.00 in0.0 mm 0.00 in0.0 mm
09:20 PM 30.6°F-0.8°C 25.8°F-3.4°C 82% 10.4 mph ENE16.7 kmh ENE 15.0 mph24.1 kmh 30.09 in1019.0 mb - 0.00 in0.0 mm 0.00 in0.0 mm
09:30 PM 30.5°F-0.8°C 25.7°F-3.5°C 82% 10.4 mph ENE16.7 kmh ENE 15.0 mph24.1 kmh 30.09 in1019.0 mb - 0.00 in0.0 mm 0.00 in0.0 mm
09:40 PM 30.6°F-0.8°C 25.7°F-3.5°C 82% 10.4 mph ENE16.7 kmh ENE 12.7 mph20.4 kmh 30.08 in1018.6 mb - 0.00 in0.0 mm 0.00 in0.0 mm
09:50 PM 30.5°F-0.8°C 25.4°F-3.7°C 81% 9.2 mph ENE14.8 kmh ENE 10.4 mph16.7 kmh 30.07 in1018.3 mb - 0.00 in0.0 mm 0.00 in0.0 mm
10:00 PM 30.5°F-0.8°C 25.4°F-3.7°C 81% 8.1 mph ENE13.0 kmh ENE 17.3 mph27.8 kmh 30.06 in1017.9 mb - 0.00 in0.0 mm 0.00 in0.0 mm
10:10 PM 30.6°F-0.8°C 25.5°F-3.6°C 81% 10.4 mph NE16.7 kmh NE 17.3 mph27.8 kmh 30.06 in1017.9 mb - 0.00 in0.0 mm 0.00 in0.0 mm
10:20 PM 30.6°F-0.8°C 25.5°F-3.6°C 81% 8.1 mph ENE13.0 kmh ENE 10.4 mph16.7 kmh 30.06 in1017.9 mb - 0.00 in0.0 mm 0.00 in0.0 mm
10:30 PM 30.5°F-0.8°C 25.4°F-3.7°C 81% 8.1 mph NE13.0 kmh NE 11.5 mph18.5 kmh 30.07 in1018.3 mb - 0.00 in0.0 mm 0.00 in0.0 mm
10:40 PM 30.4°F-0.9°C 25.3°F-3.7°C 81% 8.1 mph ENE13.0 kmh ENE 11.5 mph18.5 kmh 30.08 in1018.6 mb - 0.00 in0.0 mm 0.00 in0.0 mm
10:50 PM 30.4°F-0.9°C 25.3°F-3.7°C 81% 6.9 mph ENE11.1 kmh ENE 11.5 mph18.5 kmh 30.10 in1019.3 mb - 0.00 in0.0 mm 0.00 in0.0 mm
11:00 PM 30.5°F-0.8°C 25.3°F-3.7°C 81% 8.1 mph ENE13.0 kmh ENE 12.7 mph20.4 kmh 30.10 in1019.3 mb - 0.00 in0.0 mm 0.00 in0.0 mm
11:10 PM 30.4°F-0.9°C 25.3°F-3.7°C 81% 6.9 mph ENE11.1 kmh ENE 9.2 mph14.8 kmh 30.10 in1019.3 mb - 0.00 in0.0 mm 0.00 in0.0 mm
11:20 PM 30.4°F-0.9°C 25.3°F-3.7°C 81% 5.8 mph NE9.3 kmh NE 8.1 mph13.0 kmh 30.09 in1019.0 mb - 0.00 in0.0 mm 0.00 in0.0 mm
11:30 PM 30.4°F-0.9°C 25.3°F-3.7°C 81% 8.1 mph NE13.0 kmh NE 11.5 mph18.5 kmh 30.08 in1018.6 mb - 0.00 in0.0 mm 0.00 in0.0 mm
11:40 PM 30.4°F-0.9°C 25.6°F-3.6°C 82% 8.1 mph ENE13.0 kmh ENE 13.8 mph22.2 kmh 30.07 in1018.3 mb - 0.00 in0.0 mm 0.00 in0.0 mm
11:50 PM 30.5°F-0.8°C 25.6°F-3.6°C 82% 8.1 mph NE13.0 kmh NE 12.7 mph20.4 kmh 30.08 in1018.6 mb - 0.00 in0.0 mm 0.00 in0.0 mm